Terminal Aerodrome Forecast
Issued by NWS

Home | Current Version | Previous Version | Text Only | Print | Product List | Glossary On
Versions: 1 2 3 4 5 6 7 8 9 10 11 12 13 14 15 16 17 18 19 20 21 22 23 24 25 26 27 28 29 30 31 32 33 34 35 36 37 38 39 40 41 42 43 44 45 46 47 48 49 50
000
FTUS41 KCTP 051021 AAA
TAFLNS
TAF AMD
KLNS 051021Z 0510/0606 VRB03KT 5SM BR VCSH SCT004 OVC010
     FM051300 27010KT 6SM -SHRA BR OVC035
     FM051500 31012KT P6SM BKN050
     FM052100 30007KT P6SM SCT100=

USA.gov is the U.S. government's official web portal to all federal, state and local government web resources and services.